sensor_id;sensor_type;location;lat;lon;timestamp;pressure;altitude;pressure_sealevel;temperature;humidity
10897;BME280;5501;51.176;6.470;2023-03-20T00:00:58;101431.91;;;10.66;92.83
10897;BME280;5501;51.176;6.470;2023-03-20T00:05:59;101439.84;;;10.68;92.86
10897;BME280;5501;51.176;6.470;2023-03-20T00:11:01;101448.78;;;10.63;93.04
10897;BME280;5501;51.176;6.470;2023-03-20T00:16:02;101449.09;;;10.45;93.43
10897;BME280;5501;51.176;6.470;2023-03-20T00:21:14;101459.22;;;10.76;93.08
10897;BME280;5501;51.176;6.470;2023-03-20T00:26:18;101448.28;;;10.92;92.80
10897;BME280;5501;51.176;6.470;2023-03-20T00:31:23;101459.41;;;10.63;93.56
10897;BME280;5501;51.176;6.470;2023-03-20T00:36:26;101452.16;;;10.75;93.00
10897;BME280;5501;51.176;6.470;2023-03-20T00:46:38;101454.94;;;10.67;93.18
10897;BME280;5501;51.176;6.470;2023-03-20T00:51:40;101453.84;;;10.79;92.26
10897;BME280;5501;51.176;6.470;2023-03-20T00:57:00;101454.91;;;10.70;93.09
10897;BME280;5501;51.176;6.470;2023-03-20T01:02:03;101431.84;;;10.68;93.17
10897;BME280;5501;51.176;6.470;2023-03-20T01:07:07;101428.94;;;10.83;92.61
10897;BME280;5501;51.176;6.470;2023-03-20T01:12:13;101426.19;;;10.89;92.89
10897;BME280;5501;51.176;6.470;2023-03-20T01:17:18;101420.06;;;10.84;93.15
10897;BME280;5501;51.176;6.470;2023-03-20T01:22:19;101414.91;;;10.75;92.70
10897;BME280;5501;51.176;6.470;2023-03-20T01:27:21;101409.69;;;10.69;93.03
10897;BME280;5501;51.176;6.470;2023-03-20T01:32:23;101410.72;;;10.60;92.92
10897;BME280;5501;51.176;6.470;2023-03-20T01:37:26;101406.50;;;10.48;94.20
10897;BME280;5501;51.176;6.470;2023-03-20T01:42:33;101405.66;;;10.45;95.13
10897;BME280;5501;51.176;6.470;2023-03-20T01:47:34;101404.94;;;10.35;94.75
10897;BME280;5501;51.176;6.470;2023-03-20T01:52:36;101416.59;;;10.27;95.30
10897;BME280;5501;51.176;6.470;2023-03-20T01:57:39;101415.75;;;10.23;94.65
10897;BME280;5501;51.176;6.470;2023-03-20T02:02:44;101422.09;;;10.15;94.55
10897;BME280;5501;51.176;6.470;2023-03-20T02:08:10;101443.16;;;10.27;93.01
10897;BME280;5501;51.176;6.470;2023-03-20T02:13:16;101422.09;;;10.15;92.74
10897;BME280;5501;51.176;6.470;2023-03-20T02:18:21;101420.31;;;10.15;92.54
10897;BME280;5501;51.176;6.470;2023-03-20T02:46:06;101422.09;;;10.15;89.16
10897;BME280;5501;51.176;6.470;2023-03-20T02:51:34;101422.09;;;10.15;89.76
10897;BME280;5501;51.176;6.470;2023-03-20T03:02:07;101403.81;;;9.89;90.39
10897;BME280;5501;51.176;6.470;2023-03-20T03:07:10;101397.69;;;9.84;90.33
10897;BME280;5501;51.176;6.470;2023-03-20T03:12:18;101383.47;;;9.88;89.95
10897;BME280;5501;51.176;6.470;2023-03-20T03:17:22;101385.63;;;9.62;90.82
10897;BME280;5501;51.176;6.470;2023-03-20T03:22:26;101426.19;;;9.73;90.54
10897;BME280;5501;51.176;6.470;2023-03-20T03:27:37;101442.13;;;9.72;90.43
10897;BME280;5501;51.176;6.470;2023-03-20T03:32:56;101453.59;;;9.78;89.31
10897;BME280;5501;51.176;6.470;2023-03-20T03:38:05;101447.25;;;9.87;89.15
10897;BME280;5501;51.176;6.470;2023-03-20T03:43:19;101435.84;;;9.80;89.91
10897;BME280;5501;51.176;6.470;2023-03-20T03:48:29;101425.38;;;9.68;89.24
10897;BME280;5501;51.176;6.470;2023-03-20T03:53:34;101418.31;;;9.67;89.07
10897;BME280;5501;51.176;6.470;2023-03-20T03:58:47;101416.59;;;9.63;88.18
10897;BME280;5501;51.176;6.470;2023-03-20T04:03:51;101417.50;;;9.62;88.74
10897;BME280;5501;51.176;6.470;2023-03-20T04:08:53;101414.72;;;9.71;88.05
10897;BME280;5501;51.176;6.470;2023-03-20T04:13:54;101410.41;;;9.61;87.42
10897;BME280;5501;51.176;6.470;2023-03-20T04:18:56;101394.53;;;9.57;88.47
10897;BME280;5501;51.176;6.470;2023-03-20T04:23:58;101391.66;;;9.73;88.53
10897;BME280;5501;51.176;6.470;2023-03-20T04:29:00;101393.81;;;9.44;89.86
10897;BME280;5501;51.176;6.470;2023-03-20T04:34:22;101393.81;;;9.44;89.86
10897;BME280;5501;51.176;6.470;2023-03-20T04:39:32;101413.41;;;9.34;91.59
10897;BME280;5501;51.176;6.470;2023-03-20T04:44:35;101413.41;;;9.34;91.59
10897;BME280;5501;51.176;6.470;2023-03-20T04:49:36;101409.06;;;9.27;91.96
10897;BME280;5501;51.176;6.470;2023-03-20T04:54:38;101411.97;;;9.03;94.13
10897;BME280;5501;51.176;6.470;2023-03-20T04:59:39;101408.47;;;9.01;94.35
10897;BME280;5501;51.176;6.470;2023-03-20T05:04:41;101410.38;;;8.87;95.22
10897;BME280;5501;51.176;6.470;2023-03-20T05:09:43;101410.38;;;8.87;95.22
10897;BME280;5501;51.176;6.470;2023-03-20T05:14:47;101400.53;;;9.01;95.62
10897;BME280;5501;51.176;6.470;2023-03-20T05:20:12;101400.53;;;9.01;95.58
10897;BME280;5501;51.176;6.470;2023-03-20T05:25:30;101395.13;;;9.09;95.58
10897;BME280;5501;51.176;6.470;2023-03-20T05:31:04;101390.72;;;9.09;98.46
10897;BME280;5501;51.176;6.470;2023-03-20T05:36:24;77530.69;;;-140.81;98.46
10897;BME280;5501;51.176;6.470;2023-03-20T05:41:25;101390.72;;;9.09;98.46
10897;BME280;5501;51.176;6.470;2023-03-20T05:46:45;101390.72;;;9.09;98.46
10897;BME280;5501;51.176;6.470;2023-03-20T05:51:54;101399.63;;;9.02;96.50
10897;BME280;5501;51.176;6.470;2023-03-20T05:57:03;101399.63;;;9.02;96.50
10897;BME280;5501;51.176;6.470;2023-03-20T06:02:25;101399.63;;;9.02;96.50
10897;BME280;5501;51.176;6.470;2023-03-20T06:07:36;101397.91;;;8.95;96.49
10897;BME280;5501;51.176;6.470;2023-03-20T06:12:43;101397.91;;;8.95;96.49
10897;BME280;5501;51.176;6.470;2023-03-20T06:17:45;101392.56;;;9.01;95.82
10897;BME280;5501;51.176;6.470;2023-03-20T06:22:48;101404.03;;;9.02;95.87
10897;BME280;5501;51.176;6.470;2023-03-20T06:27:49;101399.53;;;9.08;95.21
10897;BME280;5501;51.176;6.470;2023-03-20T06:32:51;101403.13;;;9.04;94.64
10897;BME280;5501;51.176;6.470;2023-03-20T06:37:54;101414.50;;;9.17;94.00
10897;BME280;5501;51.176;6.470;2023-03-20T06:42:59;101424.22;;;9.16;93.20
10897;BME280;5501;51.176;6.470;2023-03-20T06:48:12;101431.22;;;9.23;92.52
10897;BME280;5501;51.176;6.470;2023-03-20T06:53:14;101445.28;;;9.31;92.64
10897;BME280;5501;51.176;6.470;2023-03-20T06:58:24;101450.69;;;9.25;91.27
10897;BME280;5501;51.176;6.470;2023-03-20T07:03:26;101462.84;;;9.41;90.63
10897;BME280;5501;51.176;6.470;2023-03-20T07:08:31;101458.41;;;9.45;89.88
10897;BME280;5501;51.176;6.470;2023-03-20T07:13:36;101459.88;;;9.70;88.93
10897;BME280;5501;51.176;6.470;2023-03-20T07:18:47;101460.78;;;9.70;88.84
10897;BME280;5501;51.176;6.470;2023-03-20T07:23:49;101466.13;;;9.64;88.65
10897;BME280;5501;51.176;6.470;2023-03-20T07:28:51;101462.56;;;9.65;88.26
10897;BME280;5501;51.176;6.470;2023-03-20T07:33:56;101469.41;;;9.87;86.75
10897;BME280;5501;51.176;6.470;2023-03-20T07:38:58;101477.38;;;9.87;86.13
10897;BME280;5501;51.176;6.470;2023-03-20T07:44:02;101475.47;;;9.97;86.34
10897;BME280;5501;51.176;6.470;2023-03-20T07:49:17;101473.34;;;10.23;84.83
10897;BME280;5501;51.176;6.470;2023-03-20T07:54:19;101466.38;;;10.14;84.89
10897;BME280;5501;51.176;6.470;2023-03-20T07:59:20;101477.72;;;10.27;82.82
10897;BME280;5501;51.176;6.470;2023-03-20T08:04:22;101479.00;;;9.97;83.13
10897;BME280;5501;51.176;6.470;2023-03-20T08:09:23;101485.91;;;10.12;82.26
10897;BME280;5501;51.176;6.470;2023-03-20T08:14:25;101494.13;;;10.56;79.83
10897;BME280;5501;51.176;6.470;2023-03-20T08:19:26;101497.09;;;10.36;80.30
10897;BME280;5501;51.176;6.470;2023-03-20T08:24:28;101493.78;;;10.77;78.71
10897;BME280;5501;51.176;6.470;2023-03-20T08:29:30;101496.47;;;10.76;77.89
10897;BME280;5501;51.176;6.470;2023-03-20T08:34:31;101489.38;;;10.76;76.52
10897;BME280;5501;51.176;6.470;2023-03-20T08:39:33;101489.97;;;10.92;76.79
10897;BME280;5501;51.176;6.470;2023-03-20T08:44:35;101489.78;;;10.50;77.45
10897;BME280;5501;51.176;6.470;2023-03-20T08:49:37;101493.38;;;10.46;76.29
10897;BME280;5501;51.176;6.470;2023-03-20T08:54:38;101499.41;;;10.59;74.70
10897;BME280;5501;51.176;6.470;2023-03-20T08:59:40;101493.53;;;10.37;73.92
10897;BME280;5501;51.176;6.470;2023-03-20T09:04:42;101497.50;;;10.67;73.37
10897;BME280;5501;51.176;6.470;2023-03-20T09:09:44;101505.34;;;10.75;73.44
10897;BME280;5501;51.176;6.470;2023-03-20T09:14:45;101498.13;;;10.83;73.28
10897;BME280;5501;51.176;6.470;2023-03-20T09:19:47;101503.75;;;10.65;73.23
10897;BME280;5501;51.176;6.470;2023-03-20T09:24:48;101503.38;;;10.89;71.99
10897;BME280;5501;51.176;6.470;2023-03-20T09:29:50;101505.16;;;10.87;71.30
10897;BME280;5501;51.176;6.470;2023-03-20T09:34:51;101505.00;;;10.96;70.80
10897;BME280;5501;51.176;6.470;2023-03-20T09:39:53;101500.16;;;10.69;70.65
10897;BME280;5501;51.176;6.470;2023-03-20T09:44:56;101505.03;;;11.44;69.04
10897;BME280;5501;51.176;6.470;2023-03-20T09:50:17;101503.63;;;11.22;67.67
10897;BME280;5501;51.176;6.470;2023-03-20T09:55:31;101505.66;;;11.10;69.03
10897;BME280;5501;51.176;6.470;2023-03-20T10:00:34;101504.03;;;11.00;67.02
10897;BME280;5501;51.176;6.470;2023-03-20T10:21:27;101500.03;;;10.75;68.32
10897;BME280;5501;51.176;6.470;2023-03-20T10:26:34;101494.16;;;10.54;68.47
10897;BME280;5501;51.176;6.470;2023-03-20T10:31:42;101495.09;;;10.50;68.38
10897;BME280;5501;51.176;6.470;2023-03-20T10:37:03;101503.63;;;10.71;68.19
10897;BME280;5501;51.176;6.470;2023-03-20T10:42:12;101496.13;;;10.97;66.74
10897;BME280;5501;51.176;6.470;2023-03-20T10:47:15;101491.13;;;10.77;66.42
10897;BME280;5501;51.176;6.470;2023-03-20T10:52:23;101491.34;;;10.63;67.15
10897;BME280;5501;51.176;6.470;2023-03-20T10:57:27;101496.91;;;10.48;69.07
10897;BME280;5501;51.176;6.470;2023-03-20T11:02:30;101492.38;;;10.55;71.30
10897;BME280;5501;51.176;6.470;2023-03-20T11:07:33;101486.94;;;10.63;75.58
10897;BME280;5501;51.176;6.470;2023-03-20T11:12:43;101490.19;;;10.23;75.54
10897;BME280;5501;51.176;6.470;2023-03-20T11:17:57;101481.28;;;10.27;80.44
10897;BME280;5501;51.176;6.470;2023-03-20T11:23:03;101483.09;;;10.24;78.71
10897;BME280;5501;51.176;6.470;2023-03-20T11:28:17;101474.28;;;10.20;78.35
10897;BME280;5501;51.176;6.470;2023-03-20T11:33:19;101475.53;;;10.54;78.00
10897;BME280;5501;51.176;6.470;2023-03-20T11:38:21;101468.97;;;10.78;79.69
10897;BME280;5501;51.176;6.470;2023-03-20T11:43:26;101456.06;;;11.04;79.96
10897;BME280;5501;51.176;6.470;2023-03-20T11:48:37;101458.78;;;11.00;80.77
10897;BME280;5501;51.176;6.470;2023-03-20T11:54:01;101454.69;;;11.31;76.90
10897;BME280;5501;51.176;6.470;2023-03-20T11:59:03;101452.00;;;11.32;78.61
10897;BME280;5501;51.176;6.470;2023-03-20T12:04:15;101445.94;;;11.23;78.44
10897;BME280;5501;51.176;6.470;2023-03-20T12:19:32;101435.66;;;11.05;75.94
10897;BME280;5501;51.176;6.470;2023-03-20T12:24:39;101436.34;;;11.14;74.80
10897;BME280;5501;51.176;6.470;2023-03-20T12:29:44;101421.72;;;11.36;73.88
10897;BME280;5501;51.176;6.470;2023-03-20T12:34:51;101419.56;;;11.11;72.88
10897;BME280;5501;51.176;6.470;2023-03-20T12:39:56;101414.47;;;10.99;72.62
10897;BME280;5501;51.176;6.470;2023-03-20T12:45:09;101406.78;;;11.28;71.21
10897;BME280;5501;51.176;6.470;2023-03-20T12:55:43;101390.31;;;11.52;69.61
10897;BME280;5501;51.176;6.470;2023-03-20T13:00:42;101395.16;;;11.33;69.25
10897;BME280;5501;51.176;6.470;2023-03-20T13:06:01;101384.03;;;11.56;71.01
10897;BME280;5501;51.176;6.470;2023-03-20T13:21:37;101383.81;;;12.06;68.35
10897;BME280;5501;51.176;6.470;2023-03-20T13:26:44;101372.84;;;12.18;68.35
10897;BME280;5501;51.176;6.470;2023-03-20T13:31:51;101378.16;;;12.19;68.22
10897;BME280;5501;51.176;6.470;2023-03-20T13:42:09;101372.09;;;12.13;68.36
10897;BME280;5501;51.176;6.470;2023-03-20T13:47:17;101372.38;;;11.63;70.47
10897;BME280;5501;51.176;6.470;2023-03-20T13:52:23;101366.22;;;11.99;70.12
10897;BME280;5501;51.176;6.470;2023-03-20T14:07:56;101349.06;;;12.09;68.76
10897;BME280;5501;51.176;6.470;2023-03-20T14:12:58;101341.00;;;12.12;68.54
10897;BME280;5501;51.176;6.470;2023-03-20T14:18:04;101340.56;;;12.30;69.37
10897;BME280;5501;51.176;6.470;2023-03-20T14:23:13;101336.63;;;12.09;69.36
10897;BME280;5501;51.176;6.470;2023-03-20T14:38:24;101340.28;;;12.05;70.96
10897;BME280;5501;51.176;6.470;2023-03-20T14:44:16;101331.91;;;11.84;70.44
10897;BME280;5501;51.176;6.470;2023-03-20T14:48:51;101333.53;;;12.26;68.29
10897;BME280;5501;51.176;6.470;2023-03-20T14:53:54;101338.56;;;12.38;67.94
10897;BME280;5501;51.176;6.470;2023-03-20T15:04:05;101333.72;;;12.20;68.94
10897;BME280;5501;51.176;6.470;2023-03-20T15:09:09;101329.75;;;12.36;67.93
10897;BME280;5501;51.176;6.470;2023-03-20T15:14:13;101320.88;;;12.34;68.35
10897;BME280;5501;51.176;6.470;2023-03-20T15:19:19;101310.41;;;12.28;68.50
10897;BME280;5501;51.176;6.470;2023-03-20T15:24:22;101296.56;;;12.46;67.04
10897;BME280;5501;51.176;6.470;2023-03-20T15:29:23;101291.22;;;12.46;67.75
10897;BME280;5501;51.176;6.470;2023-03-20T15:34:26;101286.09;;;12.38;68.03
10897;BME280;5501;51.176;6.470;2023-03-20T15:39:28;101276.41;;;12.36;67.10
10897;BME280;5501;51.176;6.470;2023-03-20T15:44:35;101281.56;;;12.42;67.71
10897;BME280;5501;51.176;6.470;2023-03-20T15:49:38;101280.31;;;12.23;69.17
10897;BME280;5501;51.176;6.470;2023-03-20T15:54:42;101275.06;;;12.18;71.06
10897;BME280;5501;51.176;6.470;2023-03-20T15:59:43;101277.56;;;12.24;72.69
10897;BME280;5501;51.176;6.470;2023-03-20T16:04:47;101274.63;;;12.01;72.01
10897;BME280;5501;51.176;6.470;2023-03-20T16:09:49;101274.56;;;12.04;70.09
10897;BME280;5501;51.176;6.470;2023-03-20T16:14:50;101271.50;;;11.84;68.82
10897;BME280;5501;51.176;6.470;2023-03-20T16:19:52;101266.16;;;12.19;67.67
10897;BME280;5501;51.176;6.470;2023-03-20T16:24:54;101270.97;;;12.05;68.32
10897;BME280;5501;51.176;6.470;2023-03-20T16:29:58;101261.09;;;12.09;68.16
10897;BME280;5501;51.176;6.470;2023-03-20T16:35:06;101258.44;;;12.09;69.33
10897;BME280;5501;51.176;6.470;2023-03-20T16:45:32;101264.69;;;12.08;68.56
10897;BME280;5501;51.176;6.470;2023-03-20T16:50:34;101262.84;;;12.10;68.90
10897;BME280;5501;51.176;6.470;2023-03-20T16:55:42;101261.63;;;11.88;69.54
10897;BME280;5501;51.176;6.470;2023-03-20T17:00:57;101263.16;;;11.98;70.48
10897;BME280;5501;51.176;6.470;2023-03-20T17:06:04;101267.03;;;11.85;70.83
10897;BME280;5501;51.176;6.470;2023-03-20T17:11:11;101275.66;;;11.96;69.60
10897;BME280;5501;51.176;6.470;2023-03-20T17:16:15;101273.06;;;11.93;69.84
10897;BME280;5501;51.176;6.470;2023-03-20T17:21:17;101277.84;;;11.79;69.86
10897;BME280;5501;51.176;6.470;2023-03-20T17:26:19;101270.69;;;11.81;70.67
10897;BME280;5501;51.176;6.470;2023-03-20T17:31:20;101274.63;;;11.65;71.07
10897;BME280;5501;51.176;6.470;2023-03-20T17:36:23;101276.75;;;11.86;70.87
10897;BME280;5501;51.176;6.470;2023-03-20T17:41:26;101274.72;;;11.62;71.75
10897;BME280;5501;51.176;6.470;2023-03-20T17:46:28;101270.88;;;11.73;72.04
10897;BME280;5501;51.176;6.470;2023-03-20T17:51:30;101260.03;;;11.81;72.03
10897;BME280;5501;51.176;6.470;2023-03-20T17:56:33;101269.28;;;11.65;73.08
10897;BME280;5501;51.176;6.470;2023-03-20T18:01:34;101270.97;;;11.69;72.70
10897;BME280;5501;51.176;6.470;2023-03-20T18:06:36;101276.31;;;11.69;73.26
10897;BME280;5501;51.176;6.470;2023-03-20T18:11:37;101278.25;;;11.61;74.64
10897;BME280;5501;51.176;6.470;2023-03-20T18:16:39;101277.31;;;11.63;75.01
10897;BME280;5501;51.176;6.470;2023-03-20T18:21:40;101281.72;;;11.66;75.20
10897;BME280;5501;51.176;6.470;2023-03-20T18:26:41;101286.09;;;11.68;75.31
10897;BME280;5501;51.176;6.470;2023-03-20T18:31:47;101281.56;;;11.72;75.57
10897;BME280;5501;51.176;6.470;2023-03-20T18:36:48;101286.94;;;11.69;76.02
10897;BME280;5501;51.176;6.470;2023-03-20T18:41:50;101282.72;;;11.62;76.43
10897;BME280;5501;51.176;6.470;2023-03-20T18:46:52;101275.84;;;11.49;77.05
10897;BME280;5501;51.176;6.470;2023-03-20T18:51:53;101273.06;;;11.55;77.58
10897;BME280;5501;51.176;6.470;2023-03-20T18:56:55;101276.50;;;11.61;78.17
10897;BME280;5501;51.176;6.470;2023-03-20T19:02:00;101278.31;;;11.58;78.91
10897;BME280;5501;51.176;6.470;2023-03-20T19:07:01;101273.13;;;11.52;79.42
10897;BME280;5501;51.176;6.470;2023-03-20T19:12:02;101273.00;;;11.58;78.96
10897;BME280;5501;51.176;6.470;2023-03-20T19:17:04;101281.00;;;11.58;79.56
10897;BME280;5501;51.176;6.470;2023-03-20T19:22:06;101266.94;;;11.51;80.07
10897;BME280;5501;51.176;6.470;2023-03-20T19:27:16;101265.75;;;11.66;79.76
10897;BME280;5501;51.176;6.470;2023-03-20T19:32:18;101261.41;;;11.59;79.78
10897;BME280;5501;51.176;6.470;2023-03-20T19:37:19;101250.84;;;11.54;80.33
10897;BME280;5501;51.176;6.470;2023-03-20T19:42:21;101255.16;;;11.60;79.39
10897;BME280;5501;51.176;6.470;2023-03-20T19:47:42;101257.19;;;11.49;80.16
10897;BME280;5501;51.176;6.470;2023-03-20T19:52:43;101256.94;;;11.61;80.06
10897;BME280;5501;51.176;6.470;2023-03-20T19:57:45;101256.75;;;11.70;79.53
10897;BME280;5501;51.176;6.470;2023-03-20T20:02:46;101251.63;;;11.61;79.81
10897;BME280;5501;51.176;6.470;2023-03-20T20:07:48;101248.84;;;11.67;79.83
10897;BME280;5501;51.176;6.470;2023-03-20T20:13:31;101246.34;;;11.58;80.01
10897;BME280;5501;51.176;6.470;2023-03-20T20:18:31;101248.06;;;11.62;79.64
10897;BME280;5501;51.176;6.470;2023-03-20T20:23:32;101249.81;;;11.63;79.57
10897;BME280;5501;51.176;6.470;2023-03-20T20:28:34;101249.75;;;11.66;79.83
10897;BME280;5501;51.176;6.470;2023-03-20T20:33:35;101249.66;;;11.69;79.50
10897;BME280;5501;51.176;6.470;2023-03-20T20:38:37;101239.09;;;11.66;79.76
10897;BME280;5501;51.176;6.470;2023-03-20T20:43:51;101245.94;;;11.76;79.42
10897;BME280;5501;51.176;6.470;2023-03-20T20:49:13;101242.50;;;11.71;79.49
10897;BME280;5501;51.176;6.470;2023-03-20T20:54:20;101236.16;;;11.76;79.21
10897;BME280;5501;51.176;6.470;2023-03-20T20:59:21;101234.63;;;11.66;79.79
10897;BME280;5501;51.176;6.470;2023-03-20T21:04:23;101237.25;;;11.68;79.50
10897;BME280;5501;51.176;6.470;2023-03-20T21:09:24;101227.38;;;11.71;79.54
10897;BME280;5501;51.176;6.470;2023-03-20T21:14:26;101232.56;;;11.79;79.26
10897;BME280;5501;51.176;6.470;2023-03-20T21:19:29;101235.44;;;11.70;79.48
10897;BME280;5501;51.176;6.470;2023-03-20T21:24:31;101229.06;;;11.75;82.16
10897;BME280;5501;51.176;6.470;2023-03-20T21:29:35;101238.56;;;11.87;78.57
10897;BME280;5501;51.176;6.470;2023-03-20T21:34:37;101235.34;;;11.73;78.92
10897;BME280;5501;51.176;6.470;2023-03-20T21:39:39;101233.59;;;11.72;79.01
10897;BME280;5501;51.176;6.470;2023-03-20T21:44:40;101237.19;;;11.71;78.87
10897;BME280;5501;51.176;6.470;2023-03-20T21:50:02;101238.81;;;11.78;78.48
10897;BME280;5501;51.176;6.470;2023-03-20T21:55:23;101234.47;;;11.74;78.53
10897;BME280;5501;51.176;6.470;2023-03-20T22:00:45;101240.47;;;11.82;78.20
10897;BME280;5501;51.176;6.470;2023-03-20T22:06:07;101240.78;;;11.70;78.45
10897;BME280;5501;51.176;6.470;2023-03-20T22:11:29;101243.06;;;11.83;78.11
10897;BME280;5501;51.176;6.470;2023-03-20T22:16:50;101244.94;;;11.80;78.52
10897;BME280;5501;51.176;6.470;2023-03-20T22:22:12;101241.41;;;11.79;78.58
10897;BME280;5501;51.176;6.470;2023-03-20T22:27:33;101247.63;;;11.80;78.73
10897;BME280;5501;51.176;6.470;2023-03-20T22:32:55;101241.63;;;11.70;78.99
10897;BME280;5501;51.176;6.470;2023-03-20T22:38:17;101233.47;;;11.78;78.59
10897;BME280;5501;51.176;6.470;2023-03-20T22:43:39;101239.69;;;11.77;78.78
10897;BME280;5501;51.176;6.470;2023-03-20T22:49:00;101239.59;;;11.81;79.23
10897;BME280;5501;51.176;6.470;2023-03-20T22:54:01;101234.13;;;11.86;78.44
10897;BME280;5501;51.176;6.470;2023-03-20T22:59:03;101229.72;;;11.85;78.39
10897;BME280;5501;51.176;6.470;2023-03-20T23:04:05;101219.31;;;11.74;79.52
10897;BME280;5501;51.176;6.470;2023-03-20T23:09:06;101216.78;;;11.70;79.39
10897;BME280;5501;51.176;6.470;2023-03-20T23:14:15;101221.19;;;11.71;79.67
10897;BME280;5501;51.176;6.470;2023-03-20T23:19:22;101220.19;;;11.76;79.16
10897;BME280;5501;51.176;6.470;2023-03-20T23:24:24;101216.63;;;11.76;79.88
10897;BME280;5501;51.176;6.470;2023-03-20T23:29:25;101220.38;;;11.67;79.88
10897;BME280;5501;51.176;6.470;2023-03-20T23:34:26;101214.31;;;11.61;80.36
10897;BME280;5501;51.176;6.470;2023-03-20T23:39:28;101203.25;;;11.79;79.64
10897;BME280;5501;51.176;6.470;2023-03-20T23:44:29;101206.88;;;11.75;79.74
10897;BME280;5501;51.176;6.470;2023-03-20T23:49:30;101194.59;;;11.69;79.72
10897;BME280;5501;51.176;6.470;2023-03-20T23:54:32;101194.50;;;11.74;80.22
10897;BME280;5501;51.176;6.470;2023-03-20T23:59:33;101185.56;;;11.75;79.75
